sensor_id;sensor_type;location;lat;lon;timestamp;temperature;humidity
68189;DHT22;66299;47.514;19.218;2023-11-21T00:00:33;3.73;99.99
68189;DHT22;66299;47.514;19.218;2023-11-21T00:03:06;3.66;99.99
68189;DHT22;66299;47.514;19.218;2023-11-21T00:05:35;3.59;99.99
68189;DHT22;66299;47.514;19.218;2023-11-21T00:08:04;3.67;99.99
68189;DHT22;66299;47.514;19.218;2023-11-21T00:10:33;3.47;99.99
68189;DHT22;66299;47.514;19.218;2023-11-21T00:13:02;3.35;99.99
68189;DHT22;66299;47.514;19.218;2023-11-21T00:15:31;3.60;99.99
68189;DHT22;66299;47.514;19.218;2023-11-21T00:18:00;3.67;99.99
68189;DHT22;66299;47.514;19.218;2023-11-21T00:20:30;3.80;99.99
68189;DHT22;66299;47.514;19.218;2023-11-21T00:22:59;3.83;99.99
68189;DHT22;66299;47.514;19.218;2023-11-21T00:25:29;3.73;99.99
68189;DHT22;66299;47.514;19.218;2023-11-21T00:28:00;3.67;99.99
68189;DHT22;66299;47.514;19.218;2023-11-21T00:30:31;3.57;99.99
68189;DHT22;66299;47.514;19.218;2023-11-21T00:33:00;3.49;99.99
68189;DHT22;66299;47.514;19.218;2023-11-21T00:35:30;3.40;99.99
68189;DHT22;66299;47.514;19.218;2023-11-21T00:37:59;3.52;99.99
68189;DHT22;66299;47.514;19.218;2023-11-21T00:40:27;3.56;99.99
68189;DHT22;66299;47.514;19.218;2023-11-21T00:42:56;3.62;99.99
68189;DHT22;66299;47.514;19.218;2023-11-21T00:45:26;3.60;99.99
68189;DHT22;66299;47.514;19.218;2023-11-21T00:47:54;3.62;99.99
68189;DHT22;66299;47.514;19.218;2023-11-21T00:50:25;3.60;99.99
68189;DHT22;66299;47.514;19.218;2023-11-21T00:52:57;3.53;99.99
68189;DHT22;66299;47.514;19.218;2023-11-21T00:55:25;3.50;99.99
68189;DHT22;66299;47.514;19.218;2023-11-21T00:57:56;3.46;99.99
68189;DHT22;66299;47.514;19.218;2023-11-21T01:00:25;3.44;99.99
68189;DHT22;66299;47.514;19.218;2023-11-21T01:02:54;3.37;99.99
68189;DHT22;66299;47.514;19.218;2023-11-21T01:05:26;3.54;99.99
68189;DHT22;66299;47.514;19.218;2023-11-21T01:07:59;3.63;99.99
68189;DHT22;66299;47.514;19.218;2023-11-21T01:10:27;3.70;99.99
68189;DHT22;66299;47.514;19.218;2023-11-21T01:12:57;3.70;99.99
68189;DHT22;66299;47.514;19.218;2023-11-21T01:15:27;3.69;99.99
68189;DHT22;66299;47.514;19.218;2023-11-21T01:17:56;3.43;99.99
68189;DHT22;66299;47.514;19.218;2023-11-21T01:20:25;3.27;99.99
68189;DHT22;66299;47.514;19.218;2023-11-21T01:22:53;3.08;99.99
68189;DHT22;66299;47.514;19.218;2023-11-21T01:25:23;2.87;99.99
68189;DHT22;66299;47.514;19.218;2023-11-21T01:27:54;2.97;99.99
68189;DHT22;66299;47.514;19.218;2023-11-21T01:30:24;2.91;99.99
68189;DHT22;66299;47.514;19.218;2023-11-21T01:32:54;2.92;99.99
68189;DHT22;66299;47.514;19.218;2023-11-21T01:35:24;2.87;99.99
68189;DHT22;66299;47.514;19.218;2023-11-21T01:37:55;2.91;99.99
68189;DHT22;66299;47.514;19.218;2023-11-21T01:40:25;2.88;99.99
68189;DHT22;66299;47.514;19.218;2023-11-21T01:42:53;2.98;99.99
68189;DHT22;66299;47.514;19.218;2023-11-21T01:45:24;2.91;99.99
68189;DHT22;66299;47.514;19.218;2023-11-21T01:47:53;2.89;99.99
68189;DHT22;66299;47.514;19.218;2023-11-21T01:50:24;2.88;99.99
68189;DHT22;66299;47.514;19.218;2023-11-21T01:52:53;2.89;99.99
68189;DHT22;66299;47.514;19.218;2023-11-21T01:55:26;2.95;99.99
68189;DHT22;66299;47.514;19.218;2023-11-21T01:57:55;3.04;99.99
68189;DHT22;66299;47.514;19.218;2023-11-21T02:00:24;3.08;99.99
68189;DHT22;66299;47.514;19.218;2023-11-21T02:02:56;3.11;99.99
68189;DHT22;66299;47.514;19.218;2023-11-21T02:05:25;3.15;99.99
68189;DHT22;66299;47.514;19.218;2023-11-21T02:07:53;3.12;99.99
68189;DHT22;66299;47.514;19.218;2023-11-21T02:10:23;3.13;99.99
68189;DHT22;66299;47.514;19.218;2023-11-21T02:12:54;3.13;99.99
68189;DHT22;66299;47.514;19.218;2023-11-21T02:15:25;3.06;99.99
68189;DHT22;66299;47.514;19.218;2023-11-21T02:17:56;3.02;99.99
68189;DHT22;66299;47.514;19.218;2023-11-21T02:20:26;3.09;99.99
68189;DHT22;66299;47.514;19.218;2023-11-21T02:22:58;3.09;99.99
68189;DHT22;66299;47.514;19.218;2023-11-21T02:25:29;3.13;99.99
68189;DHT22;66299;47.514;19.218;2023-11-21T02:28:00;3.11;99.99
68189;DHT22;66299;47.514;19.218;2023-11-21T02:30:30;3.09;99.99
68189;DHT22;66299;47.514;19.218;2023-11-21T02:32:59;3.09;99.99
68189;DHT22;66299;47.514;19.218;2023-11-21T02:35:30;3.16;99.99
68189;DHT22;66299;47.514;19.218;2023-11-21T02:38:03;3.19;99.99
68189;DHT22;66299;47.514;19.218;2023-11-21T02:40:33;3.20;99.99
68189;DHT22;66299;47.514;19.218;2023-11-21T02:43:02;3.20;99.99
68189;DHT22;66299;47.514;19.218;2023-11-21T02:45:33;3.13;99.99
68189;DHT22;66299;47.514;19.218;2023-11-21T02:48:01;3.22;99.99
68189;DHT22;66299;47.514;19.218;2023-11-21T02:50:30;3.19;99.99
68189;DHT22;66299;47.514;19.218;2023-11-21T02:53:02;3.12;99.99
68189;DHT22;66299;47.514;19.218;2023-11-21T02:55:32;3.06;99.99
68189;DHT22;66299;47.514;19.218;2023-11-21T02:58:03;3.05;99.99
68189;DHT22;66299;47.514;19.218;2023-11-21T03:00:33;3.04;99.99
68189;DHT22;66299;47.514;19.218;2023-11-21T03:03:02;3.09;99.99
68189;DHT22;66299;47.514;19.218;2023-11-21T03:05:31;2.98;99.99
68189;DHT22;66299;47.514;19.218;2023-11-21T03:08:04;3.04;99.99
68189;DHT22;66299;47.514;19.218;2023-11-21T03:10:36;2.94;99.99
68189;DHT22;66299;47.514;19.218;2023-11-21T03:13:06;2.94;99.99
68189;DHT22;66299;47.514;19.218;2023-11-21T03:15:35;2.99;99.99
68189;DHT22;66299;47.514;19.218;2023-11-21T03:18:06;3.01;99.99
68189;DHT22;66299;47.514;19.218;2023-11-21T03:20:35;3.08;99.99
68189;DHT22;66299;47.514;19.218;2023-11-21T03:23:06;3.04;99.99
68189;DHT22;66299;47.514;19.218;2023-11-21T03:25:36;2.99;99.99
68189;DHT22;66299;47.514;19.218;2023-11-21T03:28:05;2.98;99.99
68189;DHT22;66299;47.514;19.218;2023-11-21T03:30:35;2.99;99.99
68189;DHT22;66299;47.514;19.218;2023-11-21T03:33:04;3.01;99.99
68189;DHT22;66299;47.514;19.218;2023-11-21T03:35:35;3.06;99.99
68189;DHT22;66299;47.514;19.218;2023-11-21T03:38:06;3.08;99.99
68189;DHT22;66299;47.514;19.218;2023-11-21T03:40:34;3.08;99.99
68189;DHT22;66299;47.514;19.218;2023-11-21T03:43:03;3.06;99.99
68189;DHT22;66299;47.514;19.218;2023-11-21T03:45:31;3.08;99.99
68189;DHT22;66299;47.514;19.218;2023-11-21T03:48:00;3.19;99.99
68189;DHT22;66299;47.514;19.218;2023-11-21T03:50:31;2.99;99.99
68189;DHT22;66299;47.514;19.218;2023-11-21T03:53:00;2.94;99.99
68189;DHT22;66299;47.514;19.218;2023-11-21T03:55:29;2.91;99.99
68189;DHT22;66299;47.514;19.218;2023-11-21T03:57:58;2.95;99.99
68189;DHT22;66299;47.514;19.218;2023-11-21T04:00:27;2.97;99.99
68189;DHT22;66299;47.514;19.218;2023-11-21T04:02:57;3.02;99.99
68189;DHT22;66299;47.514;19.218;2023-11-21T04:05:27;2.98;99.99
68189;DHT22;66299;47.514;19.218;2023-11-21T04:07:55;2.99;99.99
68189;DHT22;66299;47.514;19.218;2023-11-21T04:10:25;3.08;99.99
68189;DHT22;66299;47.514;19.218;2023-11-21T04:12:57;3.06;99.99
68189;DHT22;66299;47.514;19.218;2023-11-21T04:15:27;3.09;99.99
68189;DHT22;66299;47.514;19.218;2023-11-21T04:17:56;3.11;99.99
68189;DHT22;66299;47.514;19.218;2023-11-21T04:20:25;3.02;99.99
68189;DHT22;66299;47.514;19.218;2023-11-21T04:22:54;3.06;99.99
68189;DHT22;66299;47.514;19.218;2023-11-21T04:25:22;3.12;99.99
68189;DHT22;66299;47.514;19.218;2023-11-21T04:27:51;3.18;99.99
68189;DHT22;66299;47.514;19.218;2023-11-21T04:30:24;3.18;99.99
68189;DHT22;66299;47.514;19.218;2023-11-21T04:32:54;2.81;99.99
68189;DHT22;66299;47.514;19.218;2023-11-21T04:35:24;2.61;99.99
68189;DHT22;66299;47.514;19.218;2023-11-21T04:37:52;2.39;99.99
68189;DHT22;66299;47.514;19.218;2023-11-21T04:40:21;2.46;99.99
68189;DHT22;66299;47.514;19.218;2023-11-21T04:42:50;2.46;99.99
68189;DHT22;66299;47.514;19.218;2023-11-21T04:45:19;2.48;99.99
68189;DHT22;66299;47.514;19.218;2023-11-21T04:47:49;2.62;99.99
68189;DHT22;66299;47.514;19.218;2023-11-21T04:50:18;2.76;99.99
68189;DHT22;66299;47.514;19.218;2023-11-21T04:52:47;2.84;99.99
68189;DHT22;66299;47.514;19.218;2023-11-21T04:55:17;2.89;99.99
68189;DHT22;66299;47.514;19.218;2023-11-21T04:57:47;2.97;99.99
68189;DHT22;66299;47.514;19.218;2023-11-21T05:00:17;2.92;99.99
68189;DHT22;66299;47.514;19.218;2023-11-21T05:02:49;2.95;99.99
68189;DHT22;66299;47.514;19.218;2023-11-21T05:05:18;2.92;99.99
68189;DHT22;66299;47.514;19.218;2023-11-21T05:07:47;2.91;99.99
68189;DHT22;66299;47.514;19.218;2023-11-21T05:10:16;2.97;99.99
68189;DHT22;66299;47.514;19.218;2023-11-21T05:12:45;3.02;99.99
68189;DHT22;66299;47.514;19.218;2023-11-21T05:15:15;3.05;99.99
68189;DHT22;66299;47.514;19.218;2023-11-21T05:17:45;3.06;99.99
68189;DHT22;66299;47.514;19.218;2023-11-21T05:20:20;3.05;99.99
68189;DHT22;66299;47.514;19.218;2023-11-21T05:22:50;3.08;99.99
68189;DHT22;66299;47.514;19.218;2023-11-21T05:25:20;3.15;99.99
68189;DHT22;66299;47.514;19.218;2023-11-21T05:27:51;3.19;99.99
68189;DHT22;66299;47.514;19.218;2023-11-21T05:30:23;3.23;99.99
68189;DHT22;66299;47.514;19.218;2023-11-21T05:32:53;3.26;99.99
68189;DHT22;66299;47.514;19.218;2023-11-21T05:35:25;3.30;99.99
68189;DHT22;66299;47.514;19.218;2023-11-21T05:37:54;3.32;99.99
68189;DHT22;66299;47.514;19.218;2023-11-21T05:40:23;3.32;99.99
68189;DHT22;66299;47.514;19.218;2023-11-21T05:42:53;3.37;99.99
68189;DHT22;66299;47.514;19.218;2023-11-21T05:45:22;3.44;99.99
68189;DHT22;66299;47.514;19.218;2023-11-21T05:47:51;3.40;99.99
68189;DHT22;66299;47.514;19.218;2023-11-21T05:50:20;3.46;99.99
68189;DHT22;66299;47.514;19.218;2023-11-21T05:52:51;3.47;99.99
68189;DHT22;66299;47.514;19.218;2023-11-21T05:55:19;3.52;99.99
68189;DHT22;66299;47.514;19.218;2023-11-21T05:57:51;3.57;99.99
68189;DHT22;66299;47.514;19.218;2023-11-21T06:00:21;3.56;99.99
68189;DHT22;66299;47.514;19.218;2023-11-21T06:02:50;3.56;99.99
68189;DHT22;66299;47.514;19.218;2023-11-21T06:05:22;3.64;99.99
68189;DHT22;66299;47.514;19.218;2023-11-21T06:07:54;3.95;99.99
68189;DHT22;66299;47.514;19.218;2023-11-21T06:10:24;4.06;99.99
68189;DHT22;66299;47.514;19.218;2023-11-21T06:12:53;4.18;99.99
68189;DHT22;66299;47.514;19.218;2023-11-21T06:15:22;3.87;99.99
68189;DHT22;66299;47.514;19.218;2023-11-21T06:17:51;3.78;99.99
68189;DHT22;66299;47.514;19.218;2023-11-21T06:20:21;3.83;99.99
68189;DHT22;66299;47.514;19.218;2023-11-21T06:22:50;3.91;99.99
68189;DHT22;66299;47.514;19.218;2023-11-21T06:25:23;3.93;99.99
68189;DHT22;66299;47.514;19.218;2023-11-21T06:27:53;3.93;99.99
68189;DHT22;66299;47.514;19.218;2023-11-21T06:30:23;4.14;99.99
68189;DHT22;66299;47.514;19.218;2023-11-21T06:32:52;4.15;99.99
68189;DHT22;66299;47.514;19.218;2023-11-21T06:35:22;4.25;99.99
68189;DHT22;66299;47.514;19.218;2023-11-21T06:37:52;4.22;99.99
68189;DHT22;66299;47.514;19.218;2023-11-21T06:40:22;4.26;99.99
68189;DHT22;66299;47.514;19.218;2023-11-21T06:42:52;4.35;99.99
68189;DHT22;66299;47.514;19.218;2023-11-21T06:45:22;4.38;99.99
68189;DHT22;66299;47.514;19.218;2023-11-21T06:47:54;4.39;99.99
68189;DHT22;66299;47.514;19.218;2023-11-21T06:50:22;4.41;99.99
68189;DHT22;66299;47.514;19.218;2023-11-21T06:52:51;4.41;99.99
68189;DHT22;66299;47.514;19.218;2023-11-21T06:55:22;4.35;99.99
68189;DHT22;66299;47.514;19.218;2023-11-21T06:57:51;4.32;99.99
68189;DHT22;66299;47.514;19.218;2023-11-21T07:00:19;4.29;99.99
68189;DHT22;66299;47.514;19.218;2023-11-21T07:02:48;4.32;99.99
68189;DHT22;66299;47.514;19.218;2023-11-21T07:05:17;4.31;99.99
68189;DHT22;66299;47.514;19.218;2023-11-21T07:07:48;4.33;99.99
68189;DHT22;66299;47.514;19.218;2023-11-21T07:10:18;4.39;99.99
68189;DHT22;66299;47.514;19.218;2023-11-21T07:12:48;4.38;99.99
68189;DHT22;66299;47.514;19.218;2023-11-21T07:15:18;4.43;99.99
68189;DHT22;66299;47.514;19.218;2023-11-21T07:17:48;4.52;99.99
68189;DHT22;66299;47.514;19.218;2023-11-21T07:20:17;4.57;99.99
68189;DHT22;66299;47.514;19.218;2023-11-21T07:22:45;4.63;99.99
68189;DHT22;66299;47.514;19.218;2023-11-21T07:25:14;4.64;99.99
68189;DHT22;66299;47.514;19.218;2023-11-21T07:27:43;4.67;99.99
68189;DHT22;66299;47.514;19.218;2023-11-21T07:30:14;4.67;99.99
68189;DHT22;66299;47.514;19.218;2023-11-21T07:32:42;4.69;99.99
68189;DHT22;66299;47.514;19.218;2023-11-21T07:35:12;4.73;99.99
68189;DHT22;66299;47.514;19.218;2023-11-21T07:37:41;4.79;99.99
68189;DHT22;66299;47.514;19.218;2023-11-21T07:40:11;4.87;99.99
68189;DHT22;66299;47.514;19.218;2023-11-21T07:42:41;4.85;99.99
68189;DHT22;66299;47.514;19.218;2023-11-21T07:45:10;4.91;99.99
68189;DHT22;66299;47.514;19.218;2023-11-21T07:47:41;4.94;99.99
68189;DHT22;66299;47.514;19.218;2023-11-21T07:50:10;5.10;99.99
68189;DHT22;66299;47.514;19.218;2023-11-21T07:52:40;5.08;99.99
68189;DHT22;66299;47.514;19.218;2023-11-21T07:55:10;5.17;99.99
68189;DHT22;66299;47.514;19.218;2023-11-21T07:57:38;5.21;99.99
68189;DHT22;66299;47.514;19.218;2023-11-21T08:00:08;5.29;99.99
68189;DHT22;66299;47.514;19.218;2023-11-21T08:02:41;5.22;99.99
68189;DHT22;66299;47.514;19.218;2023-11-21T08:05:13;5.25;99.99
68189;DHT22;66299;47.514;19.218;2023-11-21T08:07:54;5.32;99.99
68189;DHT22;66299;47.514;19.218;2023-11-21T08:10:23;5.49;99.99
68189;DHT22;66299;47.514;19.218;2023-11-21T08:12:52;5.48;99.99
68189;DHT22;66299;47.514;19.218;2023-11-21T08:15:21;5.62;99.99
68189;DHT22;66299;47.514;19.218;2023-11-21T08:17:52;5.66;99.99
68189;DHT22;66299;47.514;19.218;2023-11-21T08:20:20;5.73;99.99
68189;DHT22;66299;47.514;19.218;2023-11-21T08:22:50;5.80;99.99
68189;DHT22;66299;47.514;19.218;2023-11-21T08:25:20;5.87;99.99
68189;DHT22;66299;47.514;19.218;2023-11-21T08:27:49;5.91;99.99
68189;DHT22;66299;47.514;19.218;2023-11-21T08:30:18;5.98;99.99
68189;DHT22;66299;47.514;19.218;2023-11-21T08:32:48;6.13;99.99
68189;DHT22;66299;47.514;19.218;2023-11-21T08:35:20;6.21;99.99
68189;DHT22;66299;47.514;19.218;2023-11-21T08:37:48;6.34;99.99
68189;DHT22;66299;47.514;19.218;2023-11-21T08:40:20;6.38;99.99
68189;DHT22;66299;47.514;19.218;2023-11-21T08:42:49;6.48;99.99
68189;DHT22;66299;47.514;19.218;2023-11-21T08:45:21;6.61;99.99
68189;DHT22;66299;47.514;19.218;2023-11-21T08:47:49;6.73;99.28
68189;DHT22;66299;47.514;19.218;2023-11-21T08:50:20;6.83;98.93
68189;DHT22;66299;47.514;19.218;2023-11-21T08:52:50;6.99;97.84
68189;DHT22;66299;47.514;19.218;2023-11-21T08:55:19;7.00;98.70
68189;DHT22;66299;47.514;19.218;2023-11-21T08:57:48;7.08;99.42
68189;DHT22;66299;47.514;19.218;2023-11-21T09:00:17;7.11;99.93
68189;DHT22;66299;47.514;19.218;2023-11-21T09:02:46;7.06;99.80
68189;DHT22;66299;47.514;19.218;2023-11-21T09:05:15;7.04;98.94
68189;DHT22;66299;47.514;19.218;2023-11-21T09:07:46;7.14;99.03
68189;DHT22;66299;47.514;19.218;2023-11-21T09:10:16;7.24;98.95
68189;DHT22;66299;47.514;19.218;2023-11-21T09:12:45;7.27;99.29
68189;DHT22;66299;47.514;19.218;2023-11-21T09:15:13;7.21;99.14
68189;DHT22;66299;47.514;19.218;2023-11-21T09:17:42;7.15;99.99
68189;DHT22;66299;47.514;19.218;2023-11-21T09:20:12;7.20;99.99
68189;DHT22;66299;47.514;19.218;2023-11-21T09:22:42;7.18;99.99
68189;DHT22;66299;47.514;19.218;2023-11-21T09:25:14;7.17;99.99
68189;DHT22;66299;47.514;19.218;2023-11-21T09:27:43;7.15;99.99
68189;DHT22;66299;47.514;19.218;2023-11-21T09:30:13;7.11;99.99
68189;DHT22;66299;47.514;19.218;2023-11-21T09:32:42;7.11;99.99
68189;DHT22;66299;47.514;19.218;2023-11-21T09:35:13;7.31;99.99
68189;DHT22;66299;47.514;19.218;2023-11-21T09:37:43;7.32;99.99
68189;DHT22;66299;47.514;19.218;2023-11-21T09:40:20;7.35;99.99
68189;DHT22;66299;47.514;19.218;2023-11-21T09:42:54;7.52;99.93
68189;DHT22;66299;47.514;19.218;2023-11-21T09:45:27;7.44;99.44
68189;DHT22;66299;47.514;19.218;2023-11-21T09:47:58;7.51;98.97
68189;DHT22;66299;47.514;19.218;2023-11-21T09:50:27;7.63;99.28
68189;DHT22;66299;47.514;19.218;2023-11-21T09:53:00;7.68;99.60
68189;DHT22;66299;47.514;19.218;2023-11-21T09:55:34;7.62;99.72
68189;DHT22;66299;47.514;19.218;2023-11-21T09:58:04;7.62;99.70
68189;DHT22;66299;47.514;19.218;2023-11-21T10:00:35;7.68;99.60
68189;DHT22;66299;47.514;19.218;2023-11-21T10:03:05;7.69;99.71
68189;DHT22;66299;47.514;19.218;2023-11-21T10:05:36;7.68;99.80
68189;DHT22;66299;47.514;19.218;2023-11-21T10:08:07;7.73;99.20
68189;DHT22;66299;47.514;19.218;2023-11-21T10:10:43;7.66;99.03
68189;DHT22;66299;47.514;19.218;2023-11-21T10:13:13;7.61;98.71
68189;DHT22;66299;47.514;19.218;2023-11-21T10:15:44;7.65;98.34
68189;DHT22;66299;47.514;19.218;2023-11-21T10:18:17;7.75;98.60
68189;DHT22;66299;47.514;19.218;2023-11-21T10:20:46;7.85;98.35
68189;DHT22;66299;47.514;19.218;2023-11-21T10:23:21;7.79;98.65
68189;DHT22;66299;47.514;19.218;2023-11-21T10:25:52;7.78;98.47
68189;DHT22;66299;47.514;19.218;2023-11-21T10:28:24;7.71;98.73
68189;DHT22;66299;47.514;19.218;2023-11-21T10:30:53;7.63;98.72
68189;DHT22;66299;47.514;19.218;2023-11-21T10:33:27;7.61;99.29
68189;DHT22;66299;47.514;19.218;2023-11-21T10:35:56;7.71;99.49
68189;DHT22;66299;47.514;19.218;2023-11-21T10:38:24;7.76;98.84
68189;DHT22;66299;47.514;19.218;2023-11-21T10:40:56;7.82;99.06
68189;DHT22;66299;47.514;19.218;2023-11-21T10:43:25;7.82;99.36
68189;DHT22;66299;47.514;19.218;2023-11-21T10:45:58;7.90;98.80
68189;DHT22;66299;47.514;19.218;2023-11-21T10:48:27;7.93;98.92
68189;DHT22;66299;47.514;19.218;2023-11-21T10:50:57;8.02;98.89
68189;DHT22;66299;47.514;19.218;2023-11-21T10:53:28;8.10;98.85
68189;DHT22;66299;47.514;19.218;2023-11-21T10:56:06;8.20;98.36
68189;DHT22;66299;47.514;19.218;2023-11-21T10:58:38;8.31;98.25
68189;DHT22;66299;47.514;19.218;2023-11-21T11:01:07;8.37;97.74
68189;DHT22;66299;47.514;19.218;2023-11-21T11:03:38;8.37;97.15
68189;DHT22;66299;47.514;19.218;2023-11-21T11:06:08;8.47;97.19
68189;DHT22;66299;47.514;19.218;2023-11-21T11:08:41;8.48;97.11
68189;DHT22;66299;47.514;19.218;2023-11-21T11:11:12;8.52;96.23
68189;DHT22;66299;47.514;19.218;2023-11-21T11:13:43;8.47;96.39
68189;DHT22;66299;47.514;19.218;2023-11-21T11:16:13;8.55;96.29
68189;DHT22;66299;47.514;19.218;2023-11-21T11:18:45;8.51;96.70
68189;DHT22;66299;47.514;19.218;2023-11-21T11:21:27;8.64;96.04
68189;DHT22;66299;47.514;19.218;2023-11-21T11:24:10;8.62;95.82
68189;DHT22;66299;47.514;19.218;2023-11-21T11:26:47;8.67;95.73
68189;DHT22;66299;47.514;19.218;2023-11-21T11:29:27;8.68;96.40
68189;DHT22;66299;47.514;19.218;2023-11-21T11:32:07;8.62;95.95
68189;DHT22;66299;47.514;19.218;2023-11-21T11:34:43;8.65;96.15
68189;DHT22;66299;47.514;19.218;2023-11-21T11:37:14;8.71;95.79
68189;DHT22;66299;47.514;19.218;2023-11-21T11:39:43;8.71;95.44
68189;DHT22;66299;47.514;19.218;2023-11-21T11:42:15;8.99;95.17
68189;DHT22;66299;47.514;19.218;2023-11-21T11:44:50;9.09;95.15
68189;DHT22;66299;47.514;19.218;2023-11-21T11:47:25;9.12;94.36
68189;DHT22;66299;47.514;19.218;2023-11-21T11:49:59;9.09;93.46
68189;DHT22;66299;47.514;19.218;2023-11-21T11:52:39;8.90;93.69
68189;DHT22;66299;47.514;19.218;2023-11-21T11:55:10;9.03;93.27
68189;DHT22;66299;47.514;19.218;2023-11-21T11:57:43;9.09;94.10
68189;DHT22;66299;47.514;19.218;2023-11-21T12:00:16;9.06;93.91
68189;DHT22;66299;47.514;19.218;2023-11-21T12:02:48;9.09;93.65
68189;DHT22;66299;47.514;19.218;2023-11-21T12:05:18;9.12;93.67
68189;DHT22;66299;47.514;19.218;2023-11-21T12:07:49;8.98;94.20
68189;DHT22;66299;47.514;19.218;2023-11-21T12:10:20;9.03;93.04
68189;DHT22;66299;47.514;19.218;2023-11-21T12:12:54;9.05;92.97
68189;DHT22;66299;47.514;19.218;2023-11-21T12:15:23;9.03;93.78
68189;DHT22;66299;47.514;19.218;2023-11-21T12:17:52;8.92;94.84
68189;DHT22;66299;47.514;19.218;2023-11-21T12:20:22;8.85;93.15
68189;DHT22;66299;47.514;19.218;2023-11-21T12:22:51;9.09;94.23
68189;DHT22;66299;47.514;19.218;2023-11-21T12:25:21;9.10;94.25
68189;DHT22;66299;47.514;19.218;2023-11-21T12:27:51;9.09;93.36
68189;DHT22;66299;47.514;19.218;2023-11-21T12:30:23;9.07;93.39
68189;DHT22;66299;47.514;19.218;2023-11-21T12:32:55;9.06;92.34
68189;DHT22;66299;47.514;19.218;2023-11-21T12:35:25;9.13;93.81
68189;DHT22;66299;47.514;19.218;2023-11-21T12:37:55;9.09;94.80
68189;DHT22;66299;47.514;19.218;2023-11-21T12:40:24;9.12;94.29
68189;DHT22;66299;47.514;19.218;2023-11-21T12:42:56;8.95;93.32
68189;DHT22;66299;47.514;19.218;2023-11-21T12:45:27;9.05;95.69
68189;DHT22;66299;47.514;19.218;2023-11-21T12:47:57;9.12;94.61
68189;DHT22;66299;47.514;19.218;2023-11-21T12:50:28;9.07;94.34
68189;DHT22;66299;47.514;19.218;2023-11-21T12:53:00;8.99;94.31
68189;DHT22;66299;47.514;19.218;2023-11-21T12:55:31;9.12;94.02
68189;DHT22;66299;47.514;19.218;2023-11-21T12:58:02;9.15;94.54
68189;DHT22;66299;47.514;19.218;2023-11-21T13:00:39;9.10;94.11
68189;DHT22;66299;47.514;19.218;2023-11-21T13:03:09;8.99;93.35
68189;DHT22;66299;47.514;19.218;2023-11-21T13:05:41;9.09;93.70
68189;DHT22;66299;47.514;19.218;2023-11-21T13:08:15;9.07;93.71
68189;DHT22;66299;47.514;19.218;2023-11-21T13:10:49;9.02;93.58
68189;DHT22;66299;47.514;19.218;2023-11-21T13:13:19;9.05;93.65
68189;DHT22;66299;47.514;19.218;2023-11-21T13:15:53;9.03;93.76
68189;DHT22;66299;47.514;19.218;2023-11-21T13:18:24;9.05;93.86
68189;DHT22;66299;47.514;19.218;2023-11-21T13:20:55;9.12;94.68
68189;DHT22;66299;47.514;19.218;2023-11-21T13:23:25;9.03;93.67
68189;DHT22;66299;47.514;19.218;2023-11-21T13:25:56;9.03;93.96
68189;DHT22;66299;47.514;19.218;2023-11-21T13:28:33;9.00;94.96
68189;DHT22;66299;47.514;19.218;2023-11-21T13:31:05;9.03;95.05
68189;DHT22;66299;47.514;19.218;2023-11-21T13:33:48;9.03;95.75
68189;DHT22;66299;47.514;19.218;2023-11-21T13:36:24;9.02;94.78
68189;DHT22;66299;47.514;19.218;2023-11-21T13:38:58;8.99;96.31
68189;DHT22;66299;47.514;19.218;2023-11-21T13:41:31;8.96;96.35
68189;DHT22;66299;47.514;19.218;2023-11-21T13:44:00;8.99;95.88
68189;DHT22;66299;47.514;19.218;2023-11-21T13:46:43;8.89;96.21
68189;DHT22;66299;47.514;19.218;2023-11-21T13:49:13;8.86;95.43
68189;DHT22;66299;47.514;19.218;2023-11-21T13:51:43;8.86;95.42
68189;DHT22;66299;47.514;19.218;2023-11-21T13:54:17;8.80;96.19
68189;DHT22;66299;47.514;19.218;2023-11-21T13:56:48;8.72;95.74
68189;DHT22;66299;47.514;19.218;2023-11-21T13:59:18;8.76;95.36
68189;DHT22;66299;47.514;19.218;2023-11-21T14:01:52;8.75;95.83
68189;DHT22;66299;47.514;19.218;2023-11-21T14:04:28;8.69;96.02
68189;DHT22;66299;47.514;19.218;2023-11-21T14:07:14;8.72;95.89
68189;DHT22;66299;47.514;19.218;2023-11-21T14:09:53;8.62;96.16
68189;DHT22;66299;47.514;19.218;2023-11-21T14:12:22;8.59;95.97
68189;DHT22;66299;47.514;19.218;2023-11-21T14:14:51;8.58;95.95
68189;DHT22;66299;47.514;19.218;2023-11-21T14:17:21;8.48;96.40
68189;DHT22;66299;47.514;19.218;2023-11-21T14:19:51;8.48;96.90
68189;DHT22;66299;47.514;19.218;2023-11-21T14:22:20;8.42;96.67
68189;DHT22;66299;47.514;19.218;2023-11-21T14:24:49;8.41;97.25
68189;DHT22;66299;47.514;19.218;2023-11-21T14:27:19;8.26;98.23
68189;DHT22;66299;47.514;19.218;2023-11-21T14:29:48;8.16;98.50
68189;DHT22;66299;47.514;19.218;2023-11-21T14:32:20;8.11;97.68
68189;DHT22;66299;47.514;19.218;2023-11-21T14:34:49;8.10;97.46
68189;DHT22;66299;47.514;19.218;2023-11-21T14:37:18;7.99;97.80
68189;DHT22;66299;47.514;19.218;2023-11-21T14:39:47;7.93;97.95
68189;DHT22;66299;47.514;19.218;2023-11-21T14:42:17;7.87;98.17
68189;DHT22;66299;47.514;19.218;2023-11-21T14:44:51;7.72;98.67
68189;DHT22;66299;47.514;19.218;2023-11-21T14:47:23;7.72;98.73
68189;DHT22;66299;47.514;19.218;2023-11-21T14:49:54;7.66;98.95
68189;DHT22;66299;47.514;19.218;2023-11-21T14:52:26;7.59;99.11
68189;DHT22;66299;47.514;19.218;2023-11-21T14:55:03;7.44;99.52
68189;DHT22;66299;47.514;19.218;2023-11-21T14:57:45;7.17;99.99
68189;DHT22;66299;47.514;19.218;2023-11-21T15:00:17;7.17;99.99
68189;DHT22;66299;47.514;19.218;2023-11-21T15:03:13;7.14;99.99
68189;DHT22;66299;47.514;19.218;2023-11-21T15:06:08;7.04;99.99
68189;DHT22;66299;47.514;19.218;2023-11-21T15:08:50;6.94;99.99
68189;DHT22;66299;47.514;19.218;2023-11-21T15:11:37;6.83;99.99
68189;DHT22;66299;47.514;19.218;2023-11-21T15:14:06;6.76;99.99
68189;DHT22;66299;47.514;19.218;2023-11-21T15:16:36;6.68;99.99
68189;DHT22;66299;47.514;19.218;2023-11-21T15:19:09;6.68;99.99
68189;DHT22;66299;47.514;19.218;2023-11-21T15:21:39;6.61;99.99
68189;DHT22;66299;47.514;19.218;2023-11-21T15:24:08;6.56;99.99
68189;DHT22;66299;47.514;19.218;2023-11-21T15:26:38;6.50;99.99
68189;DHT22;66299;47.514;19.218;2023-11-21T15:29:06;6.46;99.99
68189;DHT22;66299;47.514;19.218;2023-11-21T15:31:35;6.39;99.99
68189;DHT22;66299;47.514;19.218;2023-11-21T15:34:04;6.44;99.99
68189;DHT22;66299;47.514;19.218;2023-11-21T15:36:34;6.35;99.99
68189;DHT22;66299;47.514;19.218;2023-11-21T15:39:02;6.36;99.99
68189;DHT22;66299;47.514;19.218;2023-11-21T15:41:31;6.31;99.99
68189;DHT22;66299;47.514;19.218;2023-11-21T15:44:00;6.24;99.99
68189;DHT22;66299;47.514;19.218;2023-11-21T15:46:28;6.11;99.99
68189;DHT22;66299;47.514;19.218;2023-11-21T15:48:58;6.07;99.99
68189;DHT22;66299;47.514;19.218;2023-11-21T15:51:27;6.10;99.99